< < Back
Terminal Aerodrome Forecast


Current Version              Previous Versions:   1  2  3  4  5  6  7  8  9  

Terminal Aerodrome Forecast

046
FTUS44 KBMX 051720
TAFMGM
TAF
KMGM 051720Z 0518/0618 09010KT P6SM SCT060
     FM060100 08003KT P6SM SKC=

Latest METAR

020
SAUS80 KWBC 060800 RRA
MTRMGM
METAR KMGM 060753Z AUTO 00000KT 10SM FEW060 16/13 A3015 RMK AO2 SLP208
T01560128


USA.gov is the U.S. government's official web portal to all federal, state and local government web resources and services.